createdAt,value
2019-05-13T00:00:44.804Z,14.40
2019-05-13T00:03:14.414Z,14.37
2019-05-13T00:05:44.509Z,14.34
2019-05-13T00:08:14.243Z,14.31
2019-05-13T00:10:46.751Z,14.25
2019-05-13T00:13:16.097Z,14.18
2019-05-13T00:15:45.421Z,14.13
2019-05-13T00:18:14.737Z,14.08
2019-05-13T00:20:44.518Z,14.00
2019-05-13T00:23:14.453Z,13.90
2019-05-13T00:25:44.542Z,13.83
2019-05-13T00:28:14.637Z,13.76
2019-05-13T00:30:44.737Z,13.65
2019-05-13T00:33:14.260Z,13.59
2019-05-13T00:35:44.231Z,13.06
2019-05-13T00:38:14.265Z,13.36
2019-05-13T00:40:44.515Z,13.32
2019-05-13T00:43:14.406Z,13.37
2019-05-13T00:45:44.555Z,13.39
2019-05-13T00:48:14.475Z,13.36
2019-05-13T00:50:44.393Z,13.36
2019-05-13T00:53:13.839Z,13.36
2019-05-13T00:55:44.418Z,13.36
2019-05-13T00:58:14.323Z,13.43
2019-05-13T01:00:44.652Z,13.38
2019-05-13T01:03:14.598Z,13.28
2019-05-13T01:05:44.659Z,13.13
2019-05-13T01:08:14.714Z,13.14
2019-05-13T01:10:45.102Z,13.25
2019-05-13T01:13:14.952Z,13.36
2019-05-13T01:15:44.571Z,13.38
2019-05-13T01:18:14.438Z,13.39
2019-05-13T01:20:44.068Z,13.40
2019-05-13T01:23:14.190Z,13.35
2019-05-13T01:25:44.637Z,13.26
2019-05-13T01:28:14.134Z,13.24
2019-05-13T01:30:44.126Z,13.25
2019-05-13T01:33:14.526Z,13.22
2019-05-13T01:35:44.553Z,13.18
2019-05-13T01:38:14.242Z,13.21
2019-05-13T01:40:44.109Z,13.14
2019-05-13T01:43:14.342Z,13.09
2019-05-13T01:45:44.398Z,12.98
2019-05-13T01:48:14.318Z,12.97
2019-05-13T01:50:44.650Z,12.89
2019-05-13T01:53:14.688Z,12.91
2019-05-13T01:55:44.495Z,13.03
2019-05-13T01:58:14.746Z,13.06
2019-05-13T02:00:44.700Z,13.03
2019-05-13T02:03:14.710Z,12.78
2019-05-13T02:05:44.504Z,13.03
2019-05-13T02:08:14.527Z,12.95
2019-05-13T02:10:54.968Z,12.95
2019-05-13T02:13:25.030Z,13.03
2019-05-13T02:15:56.004Z,12.93
2019-05-13T02:18:25.378Z,12.91
2019-05-13T02:20:55.786Z,12.88
2019-05-13T02:23:25.402Z,12.86
2019-05-13T02:25:54.842Z,12.95
2019-05-13T02:28:25.027Z,12.99
2019-05-13T02:30:56.865Z,13.03
2019-05-13T02:33:25.726Z,13.07
2019-05-13T02:35:55.117Z,13.03
2019-05-13T02:38:30.122Z,12.99
2019-05-13T02:40:55.559Z,13.04
2019-05-13T02:43:24.865Z,13.20
2019-05-13T02:45:54.673Z,13.23
2019-05-13T02:48:24.414Z,13.27
2019-05-13T02:50:54.621Z,13.27
2019-05-13T02:53:24.639Z,13.21
2019-05-13T02:55:54.182Z,13.15
2019-05-13T02:58:25.181Z,13.09
2019-05-13T03:00:54.997Z,13.07
2019-05-13T03:03:24.394Z,13.03
2019-05-13T03:05:54.135Z,13.00
2019-05-13T03:08:39.243Z,12.96
2019-05-13T03:10:54.739Z,12.89
2019-05-13T03:13:24.411Z,12.89
2019-05-13T03:16:12.862Z,13.00
2019-05-13T03:18:43.533Z,13.08
2019-05-13T03:21:13.089Z,13.08
2019-05-13T03:23:44.207Z,13.06
2019-05-13T03:26:13.807Z,13.15
2019-05-13T03:28:44.023Z,13.13
2019-05-13T03:31:16.677Z,13.11
2019-05-13T03:33:47.175Z,13.04
2019-05-13T03:36:17.748Z,13.05
2019-05-13T03:39:01.486Z,13.03
2019-05-13T03:41:22.531Z,13.07
2019-05-13T03:43:53.372Z,13.11
2019-05-13T03:46:24.161Z,13.11
2019-05-13T03:48:54.975Z,13.17
2019-05-13T03:51:24.555Z,13.22
2019-05-13T03:53:54.031Z,13.27
2019-05-13T03:56:24.096Z,13.30
2019-05-13T03:58:54.134Z,13.32
2019-05-13T04:01:23.994Z,13.31
2019-05-13T04:03:53.447Z,13.31
2019-05-13T04:06:23.648Z,13.33
2019-05-13T04:08:54.067Z,13.34
2019-05-13T04:11:24.127Z,13.37
2019-05-13T04:13:53.688Z,13.43
2019-05-13T04:16:23.894Z,13.49
2019-05-13T04:18:53.913Z,13.58
2019-05-13T04:21:23.647Z,13.59
2019-05-13T04:23:53.601Z,13.63
2019-05-13T04:26:23.822Z,13.67
2019-05-13T04:28:53.660Z,13.69
2019-05-13T04:31:23.225Z,13.83
2019-05-13T04:33:53.395Z,13.90
2019-05-13T04:36:23.849Z,13.93
2019-05-13T04:38:53.344Z,14.03
2019-05-13T04:41:23.373Z,14.11
2019-05-13T04:43:53.899Z,14.38
2019-05-13T04:46:23.753Z,14.44
2019-05-13T04:48:53.433Z,14.98
2019-05-13T04:51:23.069Z,14.60
2019-05-13T04:53:56.833Z,14.52
2019-05-13T04:56:24.028Z,14.65
2019-05-13T04:58:53.374Z,14.74
2019-05-13T05:01:55.316Z,14.69
2019-05-13T05:04:34.045Z,14.49
2019-05-13T05:07:22.238Z,14.46
2019-05-13T05:10:29.274Z,14.61
2019-05-13T05:13:24.373Z,14.96
2019-05-13T05:16:55.423Z,14.89
2019-05-13T05:19:52.446Z,14.93
2019-05-13T05:23:15.625Z,15.60
2019-05-13T05:26:01.245Z,15.88
2019-05-13T05:28:46.545Z,15.51
2019-05-13T05:31:53.432Z,15.22
2019-05-13T05:35:18.789Z,15.17
2019-05-13T05:38:26.226Z,15.15
2019-05-13T05:41:01.540Z,15.03
2019-05-13T05:43:33.763Z,14.80
2019-05-13T05:46:04.271Z,14.82
2019-05-13T05:48:35.244Z,14.69
2019-05-13T05:51:08.013Z,14.73
2019-05-13T05:53:39.638Z,14.75
2019-05-13T05:56:11.416Z,14.72
2019-05-13T05:58:42.976Z,14.80
2019-05-13T06:01:13.872Z,14.93
2019-05-13T06:03:45.332Z,15.28
2019-05-13T06:06:15.661Z,15.57
2019-05-13T06:08:45.331Z,16.18
2019-05-13T06:11:14.960Z,16.45
2019-05-13T06:13:44.308Z,16.73
2019-05-13T06:16:13.732Z,16.76
2019-05-13T06:18:43.072Z,16.57
2019-05-13T06:21:12.486Z,16.35
2019-05-13T06:23:42.015Z,16.19
2019-05-13T06:26:12.598Z,16.36
2019-05-13T06:28:42.084Z,16.08
2019-05-13T06:31:12.466Z,15.65
2019-05-13T06:33:42.358Z,15.72
2019-05-13T06:36:11.713Z,15.77
2019-05-13T06:38:42.418Z,14.43
2019-05-13T06:41:14.603Z,15.55
2019-05-13T06:43:43.000Z,15.44
2019-05-13T06:46:13.144Z,15.47
2019-05-13T06:48:42.539Z,15.31
2019-05-13T06:51:11.847Z,15.32
2019-05-13T06:53:41.633Z,15.28
2019-05-13T06:56:12.123Z,15.42
2019-05-13T06:58:41.779Z,15.55
2019-05-13T07:01:11.590Z,15.64
2019-05-13T07:03:42.008Z,15.72
2019-05-13T07:06:12.333Z,15.74
2019-05-13T07:08:41.972Z,15.63
2019-05-13T07:11:18.594Z,15.62
2019-05-13T07:13:42.441Z,15.85
2019-05-13T07:16:12.018Z,16.05
2019-05-13T07:18:41.660Z,16.13
2019-05-13T07:21:12.510Z,16.11
2019-05-13T07:23:42.408Z,15.91
2019-05-13T07:26:12.376Z,16.04
2019-05-13T07:28:42.843Z,16.30
2019-05-13T07:31:12.428Z,16.61
2019-05-13T07:33:42.645Z,16.66
2019-05-13T07:36:12.840Z,16.51
2019-05-13T07:38:42.283Z,16.28
2019-05-13T07:51:28.452Z,16.19
2019-05-13T07:53:57.788Z,16.05
2019-05-13T07:56:27.125Z,16.08
2019-05-13T07:58:56.463Z,16.04
2019-05-13T08:01:25.844Z,16.10
2019-05-13T08:03:55.186Z,15.85
2019-05-13T08:06:24.533Z,15.92
2019-05-13T08:08:53.870Z,15.89
2019-05-13T08:11:23.997Z,15.72
2019-05-13T08:13:53.678Z,15.83
2019-05-13T08:16:46.923Z,15.66
2019-05-13T08:19:16.243Z,15.66
2019-05-13T08:21:45.579Z,15.60
2019-05-13T08:24:14.970Z,15.51
2019-05-13T08:26:49.795Z,15.47
2019-05-13T08:29:15.373Z,15.51
2019-05-13T08:31:44.739Z,15.51
2019-05-13T08:34:52.538Z,15.47
2019-05-13T08:37:21.851Z,15.48
2019-05-13T08:39:52.197Z,15.44
2019-05-13T08:42:23.569Z,15.39
2019-05-13T08:44:53.153Z,15.32
2019-05-13T08:47:22.594Z,15.43
2019-05-13T08:49:52.193Z,15.52
2019-05-13T08:52:22.004Z,15.52
2019-05-13T08:54:52.413Z,15.53
2019-05-13T08:57:22.299Z,15.45
2019-05-13T08:59:51.850Z,15.55
2019-05-13T09:02:22.151Z,15.58
2019-05-13T09:04:51.761Z,15.66
2019-05-13T09:07:24.191Z,15.69
2019-05-13T09:09:52.752Z,15.75
2019-05-13T09:12:31.988Z,15.68
2019-05-13T09:14:53.259Z,15.73
2019-05-13T09:17:22.658Z,15.66
2019-05-13T09:19:52.185Z,15.79
2019-05-13T09:22:21.684Z,15.89
2019-05-13T09:24:53.080Z,15.80
2019-05-13T09:27:22.672Z,15.69
2019-05-13T09:29:52.198Z,15.76
2019-05-13T09:32:21.767Z,15.82
2019-05-13T09:34:52.541Z,15.84
2019-05-13T09:37:22.705Z,15.98
2019-05-13T09:39:52.243Z,15.99
2019-05-13T09:42:21.855Z,16.05
2019-05-13T09:44:52.508Z,16.15
2019-05-13T09:47:22.253Z,16.16
2019-05-13T09:49:51.597Z,16.23
2019-05-13T09:52:22.609Z,16.26
2019-05-13T09:54:52.456Z,16.24
2019-05-13T09:57:22.162Z,16.35
2019-05-13T09:59:52.373Z,16.39
2019-05-13T10:02:21.964Z,16.43
2019-05-13T10:04:51.693Z,16.45
2019-05-13T10:07:22.894Z,16.50
2019-05-13T10:09:52.327Z,16.54
2019-05-13T10:12:24.412Z,16.48
2019-05-13T10:14:54.239Z,16.46
2019-05-13T10:17:23.567Z,16.38
2019-05-13T10:19:52.915Z,16.45
2019-05-13T10:22:22.393Z,16.49
2019-05-13T10:24:51.742Z,16.53
2019-05-13T10:27:22.334Z,16.55
2019-05-13T10:29:52.404Z,16.65
2019-05-13T10:32:22.139Z,16.74
2019-05-13T10:34:53.961Z,16.69
2019-05-13T10:37:23.281Z,16.78
2019-05-13T10:39:52.726Z,16.89
2019-05-13T10:42:22.380Z,17.05
2019-05-13T10:44:52.485Z,17.21
2019-05-13T10:47:22.778Z,17.40
2019-05-13T10:49:52.653Z,17.45
2019-05-13T10:52:22.925Z,17.54
2019-05-13T10:54:52.848Z,17.92
2019-05-13T10:57:22.429Z,18.63
2019-05-13T10:59:52.893Z,18.90
2019-05-13T11:02:22.405Z,18.67
2019-05-13T11:04:52.555Z,18.76
2019-05-13T11:07:22.649Z,18.36
2019-05-13T11:09:52.836Z,17.80
2019-05-13T11:12:27.989Z,17.74
2019-05-13T11:17:30.867Z,17.78
2019-05-13T11:19:55.744Z,17.75
2019-05-13T11:22:25.114Z,17.45
2019-05-13T11:24:54.507Z,17.42
2019-05-13T11:27:23.946Z,17.55
2019-05-13T11:29:53.280Z,17.72
2019-05-13T11:32:22.652Z,17.52
2019-05-13T11:34:53.100Z,17.46
2019-05-13T11:37:23.371Z,17.28
2019-05-13T11:39:52.815Z,17.22
2019-05-13T11:42:22.852Z,17.17
2019-05-13T11:44:52.965Z,17.01
2019-05-13T11:47:22.563Z,17.00
2019-05-13T11:49:52.476Z,16.97
2019-05-13T11:52:22.655Z,16.98
2019-05-13T11:54:53.890Z,16.97
2019-05-13T11:57:23.340Z,17.06
2019-05-13T11:59:53.030Z,17.30
2019-05-13T12:02:23.351Z,17.39
2019-05-13T12:04:53.765Z,17.29
2019-05-13T12:07:23.586Z,17.24
2019-05-13T12:09:53.037Z,17.37
2019-05-13T12:12:25.050Z,17.44
2019-05-13T12:15:21.038Z,17.50
2019-05-13T12:17:24.625Z,17.52
2019-05-13T12:19:54.458Z,17.63
2019-05-13T12:22:23.920Z,17.62
2019-05-13T12:24:53.246Z,17.81
2019-05-13T12:27:22.800Z,17.94
2019-05-13T12:29:53.116Z,17.96
2019-05-13T12:32:22.829Z,17.91
2019-05-13T12:34:52.855Z,17.98
2019-05-13T12:37:22.444Z,18.22
2019-05-13T12:39:53.016Z,18.20
2019-05-13T12:42:22.993Z,18.14
2019-05-13T12:45:08.251Z,18.15
2019-05-13T12:47:23.415Z,18.68
2019-05-13T12:49:52.750Z,19.23
2019-05-13T12:52:22.884Z,19.02
2019-05-13T12:54:53.102Z,18.68
2019-05-13T12:57:23.320Z,18.44
2019-05-13T12:59:52.702Z,18.66
2019-05-13T13:02:22.687Z,18.40
2019-05-13T13:05:13.040Z,18.30
2019-05-13T13:07:23.312Z,17.86
2019-05-13T13:09:53.866Z,17.85
2019-05-13T13:12:33.749Z,17.80
2019-05-13T13:14:54.792Z,17.72
2019-05-13T13:17:24.447Z,17.62
2019-05-13T13:19:59.815Z,17.63
2019-05-13T13:22:25.582Z,17.55
2019-05-13T13:24:57.395Z,17.61
2019-05-13T13:27:58.994Z,17.45
2019-05-13T13:30:03.225Z,17.58
2019-05-13T13:32:28.250Z,17.65
2019-05-13T13:34:57.583Z,17.72
2019-05-13T13:37:27.171Z,17.65
2019-05-13T13:39:56.479Z,17.50
2019-05-13T13:42:25.870Z,17.62
2019-05-13T13:44:55.175Z,17.42
2019-05-13T13:47:24.593Z,17.53
2019-05-13T13:49:53.942Z,17.46
2019-05-13T13:52:23.292Z,17.45
2019-05-13T13:55:02.699Z,17.38
2019-05-13T13:57:25.548Z,17.36
2019-05-13T14:00:20.169Z,17.51
2019-05-13T14:02:25.874Z,17.53
2019-05-13T14:04:55.889Z,17.52
2019-05-13T14:06:28.715Z,17.59
2019-05-13T14:07:34.483Z,17.47
2019-05-13T14:09:56.348Z,17.54
2019-05-13T14:12:25.681Z,17.37
2019-05-13T14:14:55.018Z,17.29
2019-05-13T14:17:24.364Z,17.30
2019-05-13T14:19:53.733Z,17.22
2019-05-13T14:22:23.123Z,17.12
2019-05-13T14:24:52.603Z,17.13
2019-05-13T14:27:22.515Z,17.15
2019-05-13T14:29:52.755Z,17.06
2019-05-13T14:32:22.536Z,17.08
2019-05-13T14:34:52.874Z,17.01
2019-05-13T14:37:22.549Z,16.95
2019-05-13T14:39:51.886Z,16.98
2019-05-13T14:42:22.709Z,17.02
2019-05-13T14:44:52.338Z,17.09
2019-05-13T14:47:21.896Z,17.08
2019-05-13T14:49:52.124Z,17.05
2019-05-13T14:52:22.340Z,17.05
2019-05-13T14:54:51.826Z,17.07
2019-05-13T14:57:21.798Z,17.07
2019-05-13T14:59:51.570Z,17.10
2019-05-13T15:02:20.893Z,17.06
2019-05-13T15:04:52.332Z,17.00
2019-05-13T15:07:21.751Z,16.89
2019-05-13T15:09:51.598Z,16.93
2019-05-13T15:12:21.659Z,16.91
2019-05-13T15:14:52.893Z,16.86
2019-05-13T15:17:22.236Z,16.84
2019-05-13T15:19:52.518Z,16.84
2019-05-13T15:22:22.851Z,16.80
2019-05-13T15:24:52.230Z,16.78
2019-05-13T15:27:22.300Z,16.77
2019-05-13T15:29:51.918Z,16.79
2019-05-13T15:32:21.887Z,16.80
2019-05-13T15:34:51.981Z,16.83
2019-05-13T15:37:21.564Z,16.82
2019-05-13T15:39:51.864Z,16.78
2019-05-13T15:42:21.526Z,16.76
2019-05-13T15:44:53.116Z,16.76
2019-05-13T15:47:25.788Z,16.74
2019-05-13T15:49:53.103Z,16.71
2019-05-13T15:52:23.413Z,16.70
2019-05-13T15:54:52.740Z,16.69
2019-05-13T15:57:22.065Z,16.68
2019-05-13T15:59:51.887Z,16.69
2019-05-13T16:02:22.626Z,16.69
2019-05-13T16:05:00.578Z,16.64
2019-05-13T16:07:23.293Z,16.64
2019-05-13T16:09:52.825Z,16.64
2019-05-13T16:12:22.130Z,16.65
2019-05-13T16:14:51.645Z,16.66
2019-05-13T16:17:30.613Z,16.66
2019-05-13T16:19:53.536Z,16.69
2019-05-13T16:22:23.275Z,16.73
2019-05-13T16:24:52.739Z,16.71
2019-05-13T16:27:22.370Z,16.72
2019-05-13T16:29:51.795Z,16.72
2019-05-13T16:32:22.697Z,16.73
2019-05-13T16:34:52.290Z,16.75
2019-05-13T16:37:22.059Z,16.74
2019-05-13T16:39:52.185Z,16.74
2019-05-13T16:42:22.521Z,16.75
2019-05-13T16:44:52.056Z,16.72
2019-05-13T16:47:21.428Z,16.69
2019-05-13T16:49:50.748Z,16.64
2019-05-13T16:52:22.059Z,16.64
2019-05-13T16:54:53.186Z,16.60
2019-05-13T16:57:22.381Z,16.58
2019-05-13T16:59:51.940Z,16.54
2019-05-13T17:02:21.491Z,16.50
2019-05-13T17:04:52.046Z,16.48
2019-05-13T17:07:21.585Z,16.49
2019-05-13T17:09:52.200Z,16.46
2019-05-13T17:12:21.751Z,16.44
2019-05-13T17:14:52.292Z,16.42
2019-05-13T17:17:21.805Z,16.41
2019-05-13T17:19:53.700Z,16.40
2019-05-13T17:22:22.341Z,16.36
2019-05-13T17:24:52.156Z,16.32
2019-05-13T17:27:21.531Z,16.30
2019-05-13T17:29:51.730Z,16.27
2019-05-13T17:32:22.184Z,16.25
2019-05-13T17:34:51.714Z,16.21
2019-05-13T17:37:23.260Z,16.18
2019-05-13T17:39:52.611Z,16.13
2019-05-13T17:42:21.980Z,16.10
2019-05-13T17:44:52.604Z,16.08
2019-05-13T17:47:22.058Z,16.07
2019-05-13T17:49:52.121Z,16.07
2019-05-13T17:52:22.117Z,16.06
2019-05-13T17:54:51.895Z,16.03
2019-05-13T17:57:21.697Z,16.01
2019-05-13T17:59:52.091Z,16.00
2019-05-13T18:02:21.801Z,15.98
2019-05-13T18:04:52.133Z,15.95
2019-05-13T18:07:21.638Z,15.91
2019-05-13T18:09:52.035Z,15.89
2019-05-13T18:12:22.400Z,15.85
2019-05-13T18:14:51.861Z,15.82
2019-05-13T18:17:21.701Z,15.77
2019-05-13T18:19:51.520Z,15.75
2019-05-13T18:22:20.966Z,15.75
2019-05-13T18:24:51.920Z,15.74
2019-05-13T18:27:23.189Z,15.76
2019-05-13T18:29:52.703Z,15.73
2019-05-13T18:32:22.051Z,15.71
2019-05-13T18:34:51.370Z,15.65
2019-05-13T18:37:22.128Z,15.63
2019-05-13T18:39:52.174Z,15.59
2019-05-13T18:42:22.354Z,15.57
2019-05-13T18:44:51.892Z,15.56
2019-05-13T18:47:22.105Z,15.57
2019-05-13T18:49:51.723Z,15.58
2019-05-13T18:52:22.317Z,15.57
2019-05-13T18:54:51.902Z,15.54
2019-05-13T18:57:21.405Z,15.53
2019-05-13T18:59:52.011Z,15.54
2019-05-13T19:02:22.533Z,15.51
2019-05-13T19:04:52.319Z,15.48
2019-05-13T19:07:22.023Z,15.47
2019-05-13T19:09:52.361Z,15.44
2019-05-13T19:12:22.036Z,15.45
2019-05-13T19:14:51.772Z,15.41
2019-05-13T19:17:22.347Z,15.40
2019-05-13T19:19:51.956Z,15.41
2019-05-13T19:22:21.510Z,15.35
2019-05-13T19:24:51.784Z,15.30
2019-05-13T19:27:21.666Z,15.27
2019-05-13T19:29:52.457Z,15.25
2019-05-13T19:32:22.122Z,15.24
2019-05-13T19:34:51.795Z,15.23
2019-05-13T19:37:22.391Z,15.27
2019-05-13T19:39:52.499Z,15.28
2019-05-13T19:42:22.444Z,15.32
2019-05-13T19:44:51.840Z,15.35
2019-05-13T19:47:21.176Z,15.37
2019-05-13T19:49:52.307Z,15.36
2019-05-13T19:52:21.795Z,15.35
2019-05-13T19:54:51.451Z,15.34
2019-05-13T19:57:21.289Z,15.36
2019-05-13T19:59:50.799Z,15.35
2019-05-13T20:02:22.189Z,15.36
2019-05-13T20:04:52.357Z,15.33
2019-05-13T20:07:22.418Z,15.31
2019-05-13T20:09:51.983Z,15.28
2019-05-13T20:12:21.345Z,15.26
2019-05-13T20:14:51.736Z,15.26
2019-05-13T20:17:21.195Z,15.27
2019-05-13T20:19:58.022Z,15.24
2019-05-13T20:22:27.338Z,15.21
2019-05-13T20:24:56.821Z,15.19
2019-05-13T20:27:26.131Z,15.18
2019-05-13T20:29:55.637Z,15.14
2019-05-13T20:32:24.986Z,15.10
2019-05-13T20:34:54.325Z,15.07
2019-05-13T20:37:23.680Z,15.06
2019-05-13T20:39:53.044Z,15.03
2019-05-13T20:42:23.398Z,13.72
2019-05-13T20:44:52.927Z,14.97
2019-05-13T20:47:22.242Z,14.94
2019-05-13T20:50:01.475Z,14.93
2019-05-13T20:52:22.750Z,14.92
2019-05-13T20:54:52.150Z,14.87
2019-05-13T20:57:22.334Z,14.82
2019-05-13T20:59:52.574Z,14.77
2019-05-13T21:02:22.306Z,14.74
2019-05-13T21:04:51.744Z,14.72
2019-05-13T21:07:21.692Z,14.67
2019-05-13T21:09:51.366Z,14.62
2019-05-13T21:12:22.073Z,14.57
2019-05-13T21:14:51.635Z,14.54
2019-05-13T21:17:21.387Z,14.48
2019-05-13T21:19:52.799Z,14.43
2019-05-13T21:22:21.959Z,14.38
2019-05-13T21:24:51.594Z,14.35
2019-05-13T21:27:20.918Z,14.31
2019-05-13T21:29:51.948Z,14.29
2019-05-13T21:32:21.547Z,14.22
2019-05-13T21:34:51.630Z,14.17
2019-05-13T21:37:22.102Z,14.13
2019-05-13T21:39:51.843Z,14.09
2019-05-13T21:42:21.743Z,14.08
2019-05-13T21:44:51.426Z,14.02
2019-05-13T21:47:21.989Z,13.94
2019-05-13T21:49:51.715Z,13.90
2019-05-13T21:52:23.774Z,13.87
2019-05-13T21:54:52.222Z,13.83
2019-05-13T21:57:21.622Z,13.82
2019-05-13T21:59:51.588Z,13.78
2019-05-13T22:02:21.238Z,13.73
2019-05-13T22:04:52.144Z,13.69
2019-05-13T22:07:22.261Z,13.67
2019-05-13T22:09:51.843Z,13.63
2019-05-13T22:12:21.778Z,13.59
2019-05-13T22:14:51.727Z,13.52
2019-05-13T22:17:21.265Z,13.45
2019-05-13T22:19:51.276Z,13.40
2019-05-13T22:22:22.117Z,13.38
2019-05-13T22:24:51.517Z,13.37
2019-05-13T22:27:21.821Z,13.34
2019-05-13T22:29:51.648Z,13.34
2019-05-13T22:32:21.999Z,13.31
2019-05-13T22:34:51.471Z,13.29
2019-05-13T22:37:23.013Z,13.29
2019-05-13T22:39:51.977Z,13.26
2019-05-13T22:42:21.638Z,13.25
2019-05-13T22:44:52.239Z,13.26
2019-05-13T22:47:22.162Z,13.24
2019-05-13T22:49:51.679Z,13.26
2019-05-13T22:52:21.868Z,13.26
2019-05-13T22:54:51.819Z,13.23
2019-05-13T22:57:21.948Z,13.26
2019-05-13T22:59:52.072Z,13.23
2019-05-13T23:02:22.066Z,13.22
2019-05-13T23:04:51.542Z,13.21
2019-05-13T23:07:22.338Z,13.12
2019-05-13T23:09:52.054Z,13.11
2019-05-13T23:12:24.503Z,13.11
2019-05-13T23:14:53.978Z,13.06
2019-05-13T23:17:23.378Z,13.05
2019-05-13T23:19:52.781Z,13.01
2019-05-13T23:22:22.132Z,13.00
2019-05-13T23:24:51.545Z,12.97
2019-05-13T23:27:21.984Z,12.93
2019-05-13T23:29:51.769Z,12.95
2019-05-13T23:32:21.343Z,12.95
2019-05-13T23:34:51.326Z,12.93
2019-05-13T23:37:21.831Z,12.94
2019-05-13T23:39:51.993Z,12.93
2019-05-13T23:42:21.502Z,12.99
2019-05-13T23:44:51.741Z,13.00
2019-05-13T23:47:21.857Z,13.00
2019-05-13T23:49:51.460Z,13.01
2019-05-13T23:52:21.944Z,13.00
2019-05-13T23:54:51.776Z,13.03
2019-05-13T23:57:22.220Z,13.10
2019-05-13T23:59:51.745Z,12.99
